M I D A S
Marine Information and Data Acquisition System
Tripno 1477 of the Zeeleeuw from 2008-02-13 08:18:54 to 2008-02-13 15:43:21
Back to CruiseResearch ActivitiesStationsMapUnderway DataData graphs

EquipmentUnitsComment
TimeDGPSUTC
LatitudeDGPSDM.mWGS84
LongitudeDGPSDM.mWGS84
HeadingGyrodeg 
SOGDGPSknotsSpeed over ground
COGDGPSdegCourse over ground
DepthEcho soundermeters200 kHz
Missing or incorrect values are displayed as -999
Navigation data collected by the RV Zeeleeuw from 2008-02-13 08:19:25 to 2008-02-13 15:53:38
Time Latitude Longitude Heading SOG COG Depth
2008-02-13 08:20:30 51°13.664 2°55.955 126.2 -999 132 6.5
2008-02-13 08:21:30 51°13.663 2°55.954 114.5 0.1 193 6.5
2008-02-13 08:22:30 51°13.67 2°55.923 108.6 3.1 292 -999
2008-02-13 08:23:30 51°13.698 2°55.819 119.9 5.1 300 -999
2008-02-13 08:24:30 51°13.757 2°55.71 147.2 5.4 324 -999
2008-02-13 08:25:30 51°13.839 2°55.645 163.6 5.5 343 -999
2008-02-13 08:26:30 51°13.922 2°55.644 201 4 14 -999
2008-02-13 08:27:30 51°13.957 2°55.667 232 0.8 21 -999
2008-02-13 08:28:30 51°13.973 2°55.608 300 4.8 304 11.1
2008-02-13 08:29:30 51°14.034 2°55.507 320.6 5.1 322 11
2008-02-13 08:30:30 51°14.1 2°55.442 332.1 4.4 332 -999
2008-02-13 08:31:30 51°14.163 2°55.384 329.9 4.6 328 11.3
2008-02-13 08:32:30 51°14.226 2°55.304 318.7 5.1 317 -999
2008-02-13 08:33:30 51°14.298 2°55.183 311.1 7.1 309 9.9
2008-02-13 08:34:30 51°14.368 2°55.011 300.7 8.8 299 10.4
2008-02-13 08:35:30 51°14.469 2°54.792 316.9 11.5 313 10.3
2008-02-13 08:36:30 51°14.636 2°54.613 337.7 12.5 331 9.4
2008-02-13 08:37:30 51°14.821 2°54.455 338.1 12.6 332 9.1
2008-02-13 08:38:30 51°15.005 2°54.299 338.2 12.4 332 8.1
2008-02-13 08:39:30 51°15.183 2°54.123 332.7 12.7 326 8.5
2008-02-13 08:40:30 51°15.364 2°53.948 337.5 12.7 332 9.4
2008-02-13 08:41:30 51°15.548 2°53.78 335.5 12.8 329 9.9
2008-02-13 08:42:30 51°15.732 2°53.61 336.1 12.7 329 10.3
2008-02-13 08:43:30 51°15.917 2°53.445 338 12.8 331 10.7
2008-02-13 08:44:30 51°16.104 2°53.284 341.5 12.8 335 11
2008-02-13 08:45:30 51°16.299 2°53.147 341 12.8 334 11.1
2008-02-13 08:46:30 51°16.491 2°53.004 340.9 12.7 336 11.1
2008-02-13 08:47:30 51°16.684 2°52.866 340.3 12.7 335 10.7
2008-02-13 08:48:30 51°16.877 2°52.734 342.5 12.6 337 8.7
2008-02-13 08:49:30 51°17.075 2°52.613 347.6 12.7 341 9
2008-02-13 08:50:30 51°17.277 2°52.514 347.1 12.8 341 9.3
2008-02-13 08:51:30 51°17.483 2°52.452 358.5 12.7 354 9.7
2008-02-13 08:52:30 51°17.693 2°52.425 2.6 12.6 357 9.6
2008-02-13 08:53:30 51°17.899 2°52.442 13.6 12.3 10 9.8
2008-02-13 08:54:30 51°18.074 2°52.589 42.3 11.9 39 9.9
2008-02-13 08:55:30 51°18.222 2°52.801 44.5 12 40 10.1
2008-02-13 08:56:30 51°18.374 2°53.007 45 11.9 42 10.4
2008-02-13 08:57:30 51°18.526 2°53.213 43.9 11.9 40 10.6
2008-02-13 08:58:30 51°18.679 2°53.413 43.3 11.9 39 10.6
2008-02-13 08:59:30 51°18.83 2°53.617 44 11.9 39 10.8
2008-02-13 09:00:30 51°19 2°53.777 30 12 25 11
2008-02-13 09:01:30 51°19.178 2°53.918 34.6 11.9 29 11.2
2008-02-13 09:02:30 51°19.346 2°54.083 38.7 11.8 35 11.3
2008-02-13 09:03:30 51°19.509 2°54.259 40.1 11.7 38 11.6
2008-02-13 09:04:30 51°19.665 2°54.448 40.4 11.7 35 11.8
2008-02-13 09:05:30 51°19.82 2°54.637 41.5 11.7 36 11.9
2008-02-13 09:06:30 51°19.977 2°54.823 41.9 11.8 38 12.2
2008-02-13 09:07:30 51°20.134 2°55.012 40.7 11.9 36 12.3
2008-02-13 09:08:30 51°20.292 2°55.203 40.9 11.9 35 12.6
2008-02-13 09:09:30 51°20.45 2°55.392 41.3 11.8 36 12.8
2008-02-13 09:10:30 51°20.608 2°55.577 41.1 11.8 37 13
2008-02-13 09:11:30 51°20.764 2°55.769 42 11.9 37 13.2
2008-02-13 09:12:30 51°20.922 2°55.958 43.5 11.8 41 13.5
2008-02-13 09:13:30 51°21.072 2°56.162 43.5 11.8 40 13.6
2008-02-13 09:14:30 51°21.223 2°56.364 44.9 11.9 40 14
2008-02-13 09:15:30 51°21.367 2°56.578 46.7 11.8 43 14.2
2008-02-13 09:16:30 51°21.513 2°56.791 46.7 11.9 42 14.4
2008-02-13 09:17:30 51°21.659 2°57.003 45.3 11.9 40 14.6
2008-02-13 09:18:30 51°21.807 2°57.214 46.2 11.9 43 14.9
2008-02-13 09:19:30 51°21.955 2°57.428 45.6 11.9 41 14.9
2008-02-13 09:20:30 51°22.101 2°57.643 46.7 11.9 44 15.6
2008-02-13 09:21:30 51°22.246 2°57.858 46.5 11.9 43 15.8
2008-02-13 09:22:30 51°22.392 2°58.075 46.4 12 44 16.2
2008-02-13 09:23:30 51°22.538 2°58.291 45.8 12 42 16.3
2008-02-13 09:24:30 51°22.685 2°58.508 46.3 12 43 16.5
2008-02-13 09:25:30 51°22.831 2°58.727 46.6 12.1 42 16.8
2008-02-13 09:26:30 51°22.977 2°58.945 46.6 12 44 16.9
2008-02-13 09:27:30 51°23.12 2°59.164 47 11.9 44 16.9
2008-02-13 09:28:30 51°23.265 2°59.381 46.5 11.9 43 17.1
2008-02-13 09:29:30 51°23.409 2°59.597 45.6 11.9 42 17.4
2008-02-13 09:30:30 51°23.553 2°59.813 46.9 11.9 44 17.4
2008-02-13 09:31:30 51°23.697 3°0.031 46.4 11.9 45 17.2
2008-02-13 09:32:30 51°23.875 3°0.128 2.2 12.1 348 17
2008-02-13 09:33:30 51°24.035 2°59.914 314.2 13.3 311 15.7
2008-02-13 09:34:30 51°24.168 2°59.631 300.2 13.3 296 15.2
2008-02-13 09:35:30 51°24.219 2°59.279 278.2 13.8 278 14.9
2008-02-13 09:36:30 51°24.256 2°58.918 280.1 13.8 279 14.1
2008-02-13 09:37:30 51°24.292 2°58.557 280.3 13.7 278 15
2008-02-13 09:38:30 51°24.328 2°58.195 280.8 13.8 278 15.8
2008-02-13 09:39:30 51°24.366 2°57.833 281.1 13.8 279 16.7
2008-02-13 09:40:30 51°24.406 2°57.472 281.2 13.7 281 17.1
2008-02-13 09:41:30 51°24.497 2°57.147 301.7 13.5 299 15.8
2008-02-13 09:42:30 51°24.603 2°56.828 300.7 13.6 298 19.1
2008-02-13 09:43:30 51°24.706 2°56.507 300.9 13.5 297 22.2
2008-02-13 09:44:30 51°24.806 2°56.185 301 13.6 296 23.1
2008-02-13 09:45:30 51°24.913 2°55.867 303.9 13.6 299 23.3
2008-02-13 09:46:30 51°25.022 2°55.551 304.1 13.6 300 20.2
2008-02-13 09:47:30 51°25.133 2°55.235 302.9 13.6 299 18.1
2008-02-13 09:48:30 51°25.245 2°54.919 303.7 13.6 299 17.8
2008-02-13 09:49:30 51°25.356 2°54.605 303.4 13.5 299 15.7
2008-02-13 09:50:30 51°25.467 2°54.29 303.1 13.6 300 19.4
2008-02-13 09:51:30 51°25.577 2°53.984 303.4 12.8 300 19.6
2008-02-13 09:52:30 51°25.684 2°53.675 303.7 13.4 299 24.6
2008-02-13 09:53:30 51°25.792 2°53.362 302.6 13.4 298 25.1
2008-02-13 09:54:29 51°25.898 2°53.055 303.7 13.4 299 26.2
2008-02-13 09:55:28 51°26.001 2°52.748 303.8 13.4 299 26.3
2008-02-13 09:56:26 51°26.103 2°52.444 303.6 13.3 299 27.1
2008-02-13 09:57:27 51°26.21 2°52.125 304 13.4 299 25.1
2008-02-13 09:58:26 51°26.314 2°51.815 303.2 13.5 298 25.1
2008-02-13 09:59:27 51°26.424 2°51.495 302.9 13.6 298 25.2
2008-02-13 10:00:27 51°26.533 2°51.181 303.3 13.5 299 25.9
2008-02-13 10:01:26 51°26.641 2°50.872 303 13.5 298 22.1
2008-02-13 10:02:26 51°26.75 2°50.56 303.2 13.3 299 20
2008-02-13 10:03:26 51°26.857 2°50.248 302.7 13.3 299 19.5
2008-02-13 10:04:27 51°26.966 2°49.933 303.2 13.3 300 20.4
2008-02-13 10:05:27 51°27.075 2°49.625 303.7 13.3 299 21.4
2008-02-13 10:06:27 51°27.181 2°49.316 303.4 13.2 299 22.6
2008-02-13 10:07:27 51°27.288 2°49.006 303.8 13.3 299 23.5
2008-02-13 10:08:26 51°27.393 2°48.701 303.1 13.3 299 24.6
2008-02-13 10:09:26 51°27.501 2°48.392 303.3 13.3 300 25.9
2008-02-13 10:10:26 51°27.607 2°48.081 303.3 13.3 298 25.6
2008-02-13 10:11:26 51°27.712 2°47.766 302.6 13.4 298 26.1
2008-02-13 10:12:26 51°27.817 2°47.454 303.7 13.3 299 29.1
2008-02-13 10:13:26 51°27.924 2°47.144 303.8 13.2 299 31.2
2008-02-13 10:14:26 51°28.029 2°46.833 303.6 13.3 299 29
2008-02-13 10:15:26 51°28.134 2°46.52 303.4 13.4 298 27.2
2008-02-13 10:16:26 51°28.238 2°46.205 303.1 13.4 298 26.1
2008-02-13 10:17:26 51°28.344 2°45.893 303.1 13.4 298 26.1
2008-02-13 10:18:27 51°28.453 2°45.578 303.1 13.3 298 25.6
2008-02-13 10:19:26 51°28.557 2°45.271 303.6 13.3 299 26.3
2008-02-13 10:20:26 51°28.665 2°44.961 303.4 13.3 299 24.5
2008-02-13 10:21:26 51°28.772 2°44.652 303.4 13.3 299 26.3
2008-02-13 10:22:26 51°28.879 2°44.343 304 13.2 299 27.7
2008-02-13 10:23:26 51°29.025 2°44.11 338.2 12 336 25.3
2008-02-13 10:24:26 51°29.217 2°44.015 349.7 12.1 344 28.4
2008-02-13 10:25:26 51°29.411 2°43.926 349.8 12.1 344 28.8
2008-02-13 10:26:26 51°29.606 2°43.836 350.3 12.2 344 30
2008-02-13 10:27:27 51°29.805 2°43.746 350.5 12.2 345 30
2008-02-13 10:28:26 51°29.99 2°43.629 335.3 12.5 329 30
2008-02-13 10:29:26 51°30.159 2°43.43 330.9 12.6 324 27.9
2008-02-13 10:30:26 51°30.328 2°43.231 331 12.6 324 30.7
2008-02-13 10:31:26 51°30.5 2°43.037 330.8 12.5 326 28.7
2008-02-13 10:32:26 51°30.691 2°42.947 356.7 12 351 29.4
2008-02-13 10:33:26 51°30.888 2°42.894 356.6 12.1 349 27.8
2008-02-13 10:34:26 51°31.086 2°42.837 356.3 12 349 28.8
2008-02-13 10:35:26 51°31.283 2°42.796 -999 11.9 354 30.9
2008-02-13 10:36:27 51°31.483 2°42.761 1.1 11.8 357 28.4
2008-02-13 10:37:26 51°31.678 2°42.759 5 11.9 359 28
2008-02-13 10:38:26 51°31.875 2°42.76 5.5 11.9 359 29.1
2008-02-13 10:39:27 51°32.076 2°42.758 5.4 11.9 -999 30.9
2008-02-13 10:40:26 51°32.271 2°42.756 5.4 11.9 -999 30.3
2008-02-13 10:41:26 51°32.469 2°42.766 9.1 11.9 4 30.9
2008-02-13 10:42:26 51°32.667 2°42.782 8.4 11.9 3 30
2008-02-13 10:43:26 51°32.865 2°42.801 8.2 11.9 3 31.2
2008-02-13 10:44:26 51°33.064 2°42.822 8.3 12 4 30.5
2008-02-13 10:45:27 51°33.266 2°42.844 8 12 3 32
2008-02-13 10:46:26 51°33.46 2°42.871 11.2 11.9 7 32
2008-02-13 10:47:26 51°33.657 2°42.91 11.4 11.9 6 34.7
2008-02-13 10:48:27 51°33.856 2°42.947 11 11.8 6 34.7
2008-02-13 10:49:26 51°34.047 2°42.985 11.8 11.7 7 35.5
2008-02-13 10:50:26 51°34.24 2°43.023 11.6 11.6 7 33.4
2008-02-13 10:51:26 51°34.432 2°43.06 10.4 11.7 7 38.5
2008-02-13 10:52:27 51°34.627 2°43.097 10.5 11.6 5 41.2
2008-02-13 10:53:26 51°34.814 2°43.133 11.3 11.5 7 38.7
2008-02-13 10:54:27 51°35.005 2°43.182 14.7 11.4 11 38.5
2008-02-13 10:55:26 51°35.188 2°43.237 15.4 11.3 12 42
2008-02-13 10:56:26 51°35.373 2°43.297 15.4 11.4 12 38.8
2008-02-13 10:57:27 51°35.562 2°43.356 14.8 11.4 11 37.3
2008-02-13 10:58:26 51°35.744 2°43.413 14.7 11.3 10 39.7
2008-02-13 10:59:26 51°35.931 2°43.47 15.3 11.4 11 41.3
2008-02-13 11:00:26 51°36.116 2°43.529 15.5 11.3 11 37.1
2008-02-13 11:01:26 51°36.302 2°43.585 15.7 11.4 11 39.7
2008-02-13 11:02:26 51°36.487 2°43.643 15.3 11.3 11 34.7
2008-02-13 11:03:27 51°36.674 2°43.702 15.6 11.3 11 35.4
2008-02-13 11:04:27 51°36.858 2°43.759 15.3 11.3 10 33.8
2008-02-13 11:05:26 51°37.025 2°43.809 14.8 10.2 10 35.4
2008-02-13 11:06:27 51°37.21 2°43.865 16 11.4 11 35.7
2008-02-13 11:07:26 51°37.393 2°43.923 16.4 11.4 11 35.7
2008-02-13 11:08:26 51°37.58 2°43.981 15.6 11.4 12 34.6
2008-02-13 11:09:26 51°37.766 2°44.038 14.6 11.4 11 34.1
2008-02-13 11:10:26 51°37.952 2°44.099 15.9 11.4 11 32.5
2008-02-13 11:11:26 51°38.138 2°44.158 14.5 11.3 8 33.1
2008-02-13 11:12:26 51°38.292 2°44.006 306.2 12.5 297 35.1
2008-02-13 11:13:27 51°38.406 2°43.714 309.5 12.9 298 39.6
2008-02-13 11:14:26 51°38.449 2°43.379 286.3 13.3 280 34.5
2008-02-13 11:15:26 51°38.478 2°43.024 278.9 13.5 273 34.9
2008-02-13 11:16:26 51°38.484 2°42.663 278.7 13.5 273 34.9
2008-02-13 11:17:26 51°38.497 2°42.303 278.6 13.5 273 30.5
2008-02-13 11:18:26 51°38.509 2°41.941 279.3 13.6 274 24.6
2008-02-13 11:19:27 51°38.523 2°41.571 279.5 13.7 275 15.9
2008-02-13 11:20:27 51°38.537 2°41.199 279.4 13.9 273 25
2008-02-13 11:21:26 51°38.552 2°40.839 278.8 13.6 273 24.2
2008-02-13 11:22:26 51°38.563 2°40.472 279.5 13.7 272 28
2008-02-13 11:23:26 51°38.572 2°40.105 277.8 13.7 271 30
2008-02-13 11:24:26 51°38.58 2°39.739 278.6 13.7 272 30.3
2008-02-13 11:25:26 51°38.587 2°39.373 278.9 13.6 272 33.9
2008-02-13 11:26:26 51°38.591 2°39.008 278.2 13.7 270 34.6
2008-02-13 11:27:27 51°38.597 2°38.638 277.5 13.6 272 38
2008-02-13 11:28:26 51°38.603 2°38.282 278.6 13.6 272 39.4
2008-02-13 11:29:27 51°38.61 2°37.914 278.2 13.5 272 38.7
2008-02-13 11:30:27 51°38.618 2°37.551 278.5 13.6 272 39.1
2008-02-13 11:31:27 51°38.627 2°37.185 278.2 13.7 272 40.6
2008-02-13 11:32:26 51°38.634 2°36.825 278.5 13.7 272 38.9
2008-02-13 11:33:26 51°38.642 2°36.459 277.9 13.7 272 39
2008-02-13 11:34:26 51°38.649 2°36.092 278.3 13.7 272 35.7
2008-02-13 11:35:26 51°38.658 2°35.725 278.5 13.8 272 31.9
2008-02-13 11:36:27 51°38.667 2°35.349 278.4 13.9 273 16.7
2008-02-13 11:37:26 51°38.68 2°34.982 278.6 14 274 20.5
2008-02-13 11:38:27 51°38.694 2°34.605 278.9 13.8 274 27.3
2008-02-13 11:39:26 51°38.705 2°34.244 275 13.7 268 33.3
2008-02-13 11:40:26 51°38.68 2°33.877 267.2 13.8 262 38.8
2008-02-13 11:41:26 51°38.546 2°33.601 204.7 13.6 203 40.5
2008-02-13 11:42:26 51°38.32 2°33.547 180.7 14 186 38.7
2008-02-13 11:43:26 51°38.09 2°33.525 176.7 13.9 182 36.2
2008-02-13 11:44:26 51°37.86 2°33.521 175.3 13.9 181 36.3
2008-02-13 11:45:27 51°37.625 2°33.518 175.3 13.7 181 35.8
2008-02-13 11:46:26 51°37.4 2°33.517 174.7 13.7 179 34.2
2008-02-13 11:47:27 51°37.167 2°33.515 174.8 13.9 181 34.5
2008-02-13 11:48:26 51°36.941 2°33.51 174.8 13.7 181 32.3
2008-02-13 11:49:26 51°36.71 2°33.502 176.1 13.9 182 32.1
2008-02-13 11:50:27 51°36.478 2°33.503 172.7 13.7 180 32.3
2008-02-13 11:51:26 51°36.253 2°33.508 171.8 13.7 178 31.4
2008-02-13 11:52:27 51°36.021 2°33.52 171.9 13.6 177 29.7
2008-02-13 11:53:26 51°35.798 2°33.536 171.3 13.7 178 28
2008-02-13 11:54:26 51°35.571 2°33.548 171.2 13.6 178 23
2008-02-13 11:55:26 51°35.344 2°33.559 171.5 13.7 179 21.5
2008-02-13 11:56:26 51°35.133 2°33.643 146.8 12.9 156 24
2008-02-13 11:57:26 51°34.948 2°33.811 134.2 12.5 142 27.8
2008-02-13 11:58:27 51°34.813 2°34.056 121.1 12.1 131 32.7
2008-02-13 11:59:26 51°34.681 2°34.293 121.8 12.1 133 34.9
2008-02-13 12:00:26 51°34.543 2°34.531 122.5 12.2 134 33.2
2008-02-13 12:01:26 51°34.404 2°34.768 122.2 12.2 133 30.9
2008-02-13 12:02:26 51°34.266 2°35.01 122.4 12.3 133 27.1
2008-02-13 12:03:26 51°34.128 2°35.253 125 12.5 134 24.8
2008-02-13 12:04:26 51°33.979 2°35.486 127.8 12.5 139 18.9
2008-02-13 12:05:26 51°33.794 2°35.655 151.8 13.3 163 27.1
2008-02-13 12:06:27 51°33.569 2°35.713 174.6 13.8 186 27.5
2008-02-13 12:07:26 51°33.342 2°35.644 187.6 14.2 194 27.6
2008-02-13 12:08:26 51°33.111 2°35.555 187.9 14.2 193 31
2008-02-13 12:09:27 51°32.876 2°35.467 187.2 14.4 194 30.6
2008-02-13 12:10:26 51°32.647 2°35.381 186.6 14.4 192 31.2
2008-02-13 12:11:26 51°32.413 2°35.294 186.9 14.4 193 33.5
2008-02-13 12:12:27 51°32.175 2°35.207 187.2 14.4 194 31.7
2008-02-13 12:13:26 51°31.945 2°35.122 186.4 14.4 193 32.8
2008-02-13 12:14:26 51°31.711 2°35.037 186.5 14.5 193 34.7
2008-02-13 12:15:27 51°31.473 2°34.951 187.2 14.4 193 34.5
2008-02-13 12:16:26 51°31.242 2°34.869 186.5 14.5 191 35
2008-02-13 12:17:26 51°31.008 2°34.784 187.1 14.4 194 35.6
2008-02-13 12:18:26 51°30.774 2°34.702 186.3 14.4 191 35.1
2008-02-13 12:19:26 51°30.542 2°34.617 186 14.3 193 34.4
2008-02-13 12:20:26 51°30.31 2°34.535 186.3 14.3 193 33.8
2008-02-13 12:21:26 51°30.075 2°34.477 180.5 14.2 187 34.7
2008-02-13 12:22:26 51°29.843 2°34.495 160 13.7 167 36.9
2008-02-13 12:23:26 51°29.646 2°34.649 136.4 13.1 147 38.1
2008-02-13 12:24:26 51°29.471 2°34.848 129 12.7 140 38.1
2008-02-13 12:25:26 51°29.31 2°35.065 130 12.6 140 36.8
2008-02-13 12:26:27 51°29.157 2°35.297 123.1 12.3 132 36.1
2008-02-13 12:27:26 51°29.019 2°35.534 123.3 12.4 133 34.1
2008-02-13 12:28:26 51°28.877 2°35.772 123.4 12.4 134 31
2008-02-13 12:29:27 51°28.734 2°36.015 122.2 12.3 132 27.7
2008-02-13 12:30:26 51°28.601 2°36.255 121.6 12.3 131 25.5
2008-02-13 12:31:27 51°28.461 2°36.501 121.8 12.3 133 31
2008-02-13 12:32:26 51°28.323 2°36.738 122.1 12.4 133 35.8
2008-02-13 12:33:27 51°28.181 2°36.986 122.1 12.5 132 35.2
2008-02-13 12:34:26 51°28.14 2°37.195 48.5 5.6 40 35.7
2008-02-13 12:35:26 51°28.214 2°37.102 307.4 8.9 299 35.8
2008-02-13 12:36:27 51°28.313 2°36.827 309 12.7 301 36.2
2008-02-13 12:37:26 51°28.432 2°36.552 313.8 12.9 305 31.9
2008-02-13 12:38:26 51°28.555 2°36.271 314 12.9 306 26.6
2008-02-13 12:39:27 51°28.683 2°35.984 313.1 13 307 28.7
2008-02-13 12:40:27 51°28.808 2°35.702 313.1 13 305 32.8
2008-02-13 12:41:26 51°28.932 2°35.43 313.7 12.9 306 34
2008-02-13 12:42:26 51°29.056 2°35.15 312.8 12.9 305 33.9
2008-02-13 12:43:26 51°29.178 2°34.867 313.5 12.9 305 36.9
2008-02-13 12:44:26 51°29.298 2°34.583 312.7 12.8 305 36.1
2008-02-13 12:45:26 51°29.417 2°34.301 313.8 12.8 304 37.2
2008-02-13 12:46:26 51°29.534 2°34.019 312.8 12.6 303 32
2008-02-13 12:47:27 51°29.653 2°33.732 312.4 12.9 304 17.1
2008-02-13 12:48:26 51°29.751 2°33.425 296.5 13.4 287 16
2008-02-13 12:49:26 51°29.764 2°33.065 268.5 13.9 263 19.5
2008-02-13 12:50:27 51°29.704 2°32.699 257 13.9 254 23.9
2008-02-13 12:51:27 51°29.642 2°32.341 258 13.9 255 26.6
2008-02-13 12:52:26 51°29.577 2°31.992 253.4 14 251 28.9
2008-02-13 12:53:26 51°29.499 2°31.64 254.7 14 251 30.3
2008-02-13 12:54:27 51°29.407 2°31.287 250.5 14.1 246 33.3
2008-02-13 12:55:27 51°29.315 2°30.94 250.4 14.2 247 34.1
2008-02-13 12:56:27 51°29.223 2°30.594 251.8 14.2 248 35.7
2008-02-13 12:57:27 51°29.127 2°30.244 247.4 14.4 241 35.7
2008-02-13 12:58:27 51°29.012 2°29.908 244.4 14.4 240 37.5
2008-02-13 12:59:27 51°28.894 2°29.571 244.9 14.5 241 37.8
2008-02-13 13:00:27 51°28.774 2°29.235 245.2 14.5 240 38.8
2008-02-13 13:01:26 51°28.657 2°28.904 245 14.5 241 35.5
2008-02-13 13:02:27 51°28.536 2°28.563 245.8 14.4 241 35.6
2008-02-13 13:03:27 51°28.419 2°28.23 245.3 14.5 241 25.6
2008-02-13 13:04:27 51°28.304 2°27.893 246 14.4 241 22.9
2008-02-13 13:05:27 51°28.191 2°27.558 245.5 14.4 241 25.9
2008-02-13 13:06:27 51°28.079 2°27.227 245.2 14.1 242 29
2008-02-13 13:07:27 51°27.967 2°26.895 246 14.1 241 31
2008-02-13 13:08:27 51°27.854 2°26.563 244.9 14.2 240 33.4
2008-02-13 13:09:27 51°27.743 2°26.231 245.9 14.1 244 34.5
2008-02-13 13:10:27 51°27.63 2°25.901 244.9 14.1 242 34
2008-02-13 13:11:27 51°27.517 2°25.57 245.3 14.1 242 34.8
2008-02-13 13:12:27 51°27.405 2°25.236 245.4 14.4 242 34.5
2008-02-13 13:13:27 51°27.29 2°24.9 244.3 14.3 241 35.1
2008-02-13 13:14:27 51°27.158 2°24.58 239 14.4 236 35
2008-02-13 13:15:27 51°27.007 2°24.279 231.4 14.5 229 35.1
2008-02-13 13:16:27 51°26.842 2°23.998 225.2 14.5 223 35.1
2008-02-13 13:17:27 51°26.666 2°23.735 224.2 14.4 224 31.8
2008-02-13 13:18:27 51°26.484 2°23.482 219.3 14.3 219 32
2008-02-13 13:19:26 51°26.304 2°23.241 219.9 14.3 220 34.7
2008-02-13 13:20:27 51°26.12 2°22.989 220.6 14.3 221 34.1
2008-02-13 13:21:27 51°25.936 2°22.745 217.8 14.3 219 31.9
2008-02-13 13:22:27 51°25.751 2°22.507 217.9 14.2 217 30.2
2008-02-13 13:23:27 51°25.568 2°22.268 218.3 14.1 219 30.7
2008-02-13 13:24:27 51°25.386 2°22.027 218.5 14.2 220 27.7
2008-02-13 13:25:27 51°25.204 2°21.786 217.9 14.2 220 28.9
2008-02-13 13:26:26 51°25.024 2°21.549 217.5 14.2 219 27.4
2008-02-13 13:27:27 51°24.842 2°21.3 218 14.1 222 27.3
2008-02-13 13:28:27 51°24.662 2°21.058 218.3 14.2 220 26.5
2008-02-13 13:29:27 51°24.483 2°20.816 217.2 14.1 220 26
2008-02-13 13:30:27 51°24.304 2°20.572 218.4 14 220 25.7
2008-02-13 13:31:27 51°24.126 2°20.425 172.5 10.6 175 27
2008-02-13 13:32:27 51°24.012 2°20.594 115.4 10.7 126 32.1
2008-02-13 13:33:27 51°23.912 2°20.865 107.7 12 117 34.8
2008-02-13 13:34:27 51°23.846 2°21.166 101.2 11.9 109 33.8
2008-02-13 13:35:27 51°23.779 2°21.466 101.5 12 111 31.4
2008-02-13 13:36:27 51°23.712 2°21.768 101.1 12.1 108 33.7
2008-02-13 13:37:27 51°23.647 2°22.073 101.7 12.2 110 28
2008-02-13 13:38:27 51°23.58 2°22.377 102.1 12.2 109 33
2008-02-13 13:39:27 51°23.512 2°22.682 101.7 12.1 109 32.6
2008-02-13 13:40:27 51°23.44 2°22.987 102.3 12.3 111 28.4
2008-02-13 13:41:27 51°23.37 2°23.291 101.6 12.2 110 35.4
2008-02-13 13:42:27 51°23.298 2°23.595 102.2 12.2 109 35.1
2008-02-13 13:43:27 51°23.225 2°23.899 102 12.2 110 34.7
2008-02-13 13:44:27 51°23.154 2°24.203 103.3 12.3 111 36
2008-02-13 13:45:27 51°23.085 2°24.508 102.7 12.1 110 34.9
2008-02-13 13:46:27 51°23.018 2°24.812 102.4 12.2 108 34.2
2008-02-13 13:47:27 51°22.933 2°25.108 110.6 12.3 117 33.1
2008-02-13 13:48:27 51°22.804 2°25.368 124.5 12.7 131 26.4
2008-02-13 13:49:27 51°22.664 2°25.62 124.5 12.7 132 18.2
2008-02-13 13:50:27 51°22.522 2°25.869 123.7 12.6 132 27.2
2008-02-13 13:51:27 51°22.38 2°26.119 123.7 12.7 132 33
2008-02-13 13:52:27 51°22.237 2°26.366 123.3 12.7 133 34.5
2008-02-13 13:53:27 51°22.095 2°26.613 123.8 12.6 133 35.1
2008-02-13 13:54:27 51°21.952 2°26.861 123.6 12.6 132 34.8
2008-02-13 13:55:27 51°21.816 2°27.112 117.9 12 121 34.6
2008-02-13 13:56:27 51°21.767 2°27.411 87.8 11.8 92 34.1
2008-02-13 13:57:27 51°21.759 2°27.727 86.3 11.9 92 34.2
2008-02-13 13:58:27 51°21.749 2°28.046 88 12.1 94 34.3
2008-02-13 13:59:27 51°21.739 2°28.368 87.9 12.1 94 34.2
2008-02-13 14:00:27 51°21.728 2°28.69 88.5 12.2 95 34
2008-02-13 14:01:27 51°21.718 2°29.013 87.3 12.2 92 33.8
2008-02-13 14:02:27 51°21.714 2°29.335 85.5 12 90 33.6
2008-02-13 14:03:27 51°21.712 2°29.656 86.2 12.1 91 33
2008-02-13 14:04:27 51°21.708 2°29.977 87 12.1 91 32.5
2008-02-13 14:05:27 51°21.693 2°30.3 89 12.1 94 32.4
2008-02-13 14:06:27 51°21.68 2°30.623 88.1 12.1 94 29.2
2008-02-13 14:07:27 51°21.668 2°30.947 89.1 12.3 92 28.8
2008-02-13 14:08:27 51°21.655 2°31.272 89.9 12.3 94 21.4
2008-02-13 14:09:27 51°21.639 2°31.598 90.2 12.3 95 24.3
2008-02-13 14:10:27 51°21.625 2°31.923 89.5 12.3 95 23
2008-02-13 14:11:27 51°21.608 2°32.25 89.3 12.4 95 21.3
2008-02-13 14:12:27 51°21.589 2°32.579 89.1 12.4 96 21.6
2008-02-13 14:13:27 51°21.57 2°32.907 89.5 12.4 96 22.7
2008-02-13 14:14:27 51°21.551 2°33.236 89.3 12.6 95 26.1
2008-02-13 14:15:27 51°21.537 2°33.569 88.7 12.5 90 29.9
2008-02-13 14:16:27 51°21.53 2°33.905 89.9 12.8 92 33.1
2008-02-13 14:17:27 51°21.52 2°34.245 88.7 12.8 92 31.9
2008-02-13 14:18:27 51°21.513 2°34.583 89.1 12.7 91 34.2
2008-02-13 14:19:27 51°21.506 2°34.92 89.2 12.7 92 32.6
2008-02-13 14:20:27 51°21.498 2°35.257 89.3 12.7 92 32
2008-02-13 14:21:27 51°21.49 2°35.594 89.5 12.7 92 31.8
2008-02-13 14:22:27 51°21.482 2°35.93 90.1 12.6 93 33.8
2008-02-13 14:23:27 51°21.469 2°36.266 93.5 12.6 96 31.7
2008-02-13 14:24:27 51°21.439 2°36.6 95.3 12.7 97 32.4
2008-02-13 14:25:27 51°21.398 2°36.932 99.5 12.8 102 27.8
2008-02-13 14:26:27 51°21.354 2°37.266 99.2 12.8 102 25.4
2008-02-13 14:27:27 51°21.31 2°37.6 99.6 12.8 102 26.4
2008-02-13 14:28:27 51°21.168 2°37.829 147.3 13 150 26.6
2008-02-13 14:29:27 51°21.011 2°38.06 128 12.9 127 26.1
2008-02-13 14:30:27 51°20.928 2°38.371 104.9 12.9 107 25.5
2008-02-13 14:31:27 51°20.891 2°38.707 97.1 12.9 99 25.7
2008-02-13 14:32:27 51°20.857 2°39.046 97.9 12.9 100 24.9
2008-02-13 14:33:27 51°20.821 2°39.382 98.4 12.8 100 25.8
2008-02-13 14:34:27 51°20.769 2°39.714 103.5 12.9 106 26.7
2008-02-13 14:35:27 51°20.713 2°40.044 103.3 12.8 105 28.4
2008-02-13 14:36:27 51°20.659 2°40.375 104.1 12.9 104 27.2
2008-02-13 14:37:27 51°20.604 2°40.707 103.9 13 105 28
2008-02-13 14:38:27 51°20.529 2°41.03 113.5 13 113 29.4
2008-02-13 14:39:27 51°20.447 2°41.349 113 13 113 22.5
2008-02-13 14:40:27 51°20.364 2°41.672 112.6 13.2 113 21.7
2008-02-13 14:41:27 51°20.282 2°41.996 112.4 13.2 112 18
2008-02-13 14:42:27 51°20.2 2°42.32 112.8 12.9 114 23.7
2008-02-13 14:43:27 51°20.121 2°42.626 112.4 12.3 112 25
2008-02-13 14:44:27 51°20.043 2°42.93 112.2 12.4 112 27.3
2008-02-13 14:45:27 51°19.965 2°43.236 111.7 12.4 112 27.8
2008-02-13 14:46:27 51°19.888 2°43.543 111.8 12.5 112 27.5
2008-02-13 14:47:27 51°19.809 2°43.852 112.4 12.6 112 26.2
2008-02-13 14:48:27 51°19.731 2°44.162 112 12.6 112 25.8
2008-02-13 14:49:27 51°19.653 2°44.473 112.4 12.6 111 24.2
2008-02-13 14:50:27 51°19.576 2°44.788 112.4 12.8 111 23.2
2008-02-13 14:51:27 51°19.5 2°45.107 112.2 12.9 112 17.5
2008-02-13 14:52:27 51°19.42 2°45.431 112 13.2 112 12.8
2008-02-13 14:53:27 51°19.341 2°45.76 112.5 13.2 111 17.7
2008-02-13 14:54:27 51°19.259 2°46.085 112.6 13.1 111 19.9
2008-02-13 14:55:27 51°19.178 2°46.408 111.7 13 112 22.7
2008-02-13 14:56:27 51°19.098 2°46.727 112.4 12.9 112 22.9
2008-02-13 14:57:27 51°19.018 2°47.043 112 12.9 112 22.5
2008-02-13 14:58:27 51°18.939 2°47.362 111.9 13 111 20.8
2008-02-13 14:59:27 51°18.86 2°47.679 113 12.8 113 19.6
2008-02-13 15:00:27 51°18.782 2°47.998 112.4 12.9 112 17.3
2008-02-13 15:01:27 51°18.705 2°48.318 111.8 12.9 111 15.5
2008-02-13 15:02:27 51°18.626 2°48.64 112.1 13.1 111 13
2008-02-13 15:03:27 51°18.549 2°48.965 111.8 13.1 110 12.2
2008-02-13 15:04:27 51°18.473 2°49.294 112.4 13.3 110 12.4
2008-02-13 15:05:27 51°18.396 2°49.624 111.7 13.2 110 14.6
2008-02-13 15:06:27 51°18.319 2°49.953 112 13.1 110 15.9
2008-02-13 15:07:27 51°18.241 2°50.279 112.2 13.1 111 16
2008-02-13 15:08:27 51°18.163 2°50.604 112.6 13.1 112 15.3
2008-02-13 15:09:27 51°18.086 2°50.929 112.4 13.1 112 14.6
2008-02-13 15:10:27 51°18.006 2°51.252 112.9 13.1 111 13.4
2008-02-13 15:11:27 51°17.924 2°51.574 117.3 13.1 117 12.6
2008-02-13 15:12:27 51°17.815 2°51.875 130.3 13 129 12.1
2008-02-13 15:13:27 51°17.648 2°52.084 152.5 12.8 150 12.4
2008-02-13 15:14:27 51°17.459 2°52.233 156 12.7 155 12.7
2008-02-13 15:15:27 51°17.266 2°52.36 160.5 12.4 158 12.4
2008-02-13 15:16:27 51°17.072 2°52.466 163.9 11.6 160 11.9
2008-02-13 15:17:27 51°16.898 2°52.582 161.4 11.1 157 12.1
2008-02-13 15:18:27 51°16.727 2°52.698 160.1 11.2 154 12.5
2008-02-13 15:19:27 51°16.565 2°52.842 150 10.7 144 13.8
2008-02-13 15:20:27 51°16.424 2°53.002 149.3 10.3 144 14
2008-02-13 15:21:27 51°16.285 2°53.161 149.1 10.2 144 13.9
2008-02-13 15:22:27 51°16.147 2°53.321 148.9 10.3 144 13.9
2008-02-13 15:23:27 51°16.01 2°53.481 149.2 10.2 144 13.7
2008-02-13 15:24:27 51°15.907 2°53.613 146.2 6 137 13.6
2008-02-13 15:25:27 51°15.849 2°53.703 148.7 4.3 136 13.6
2008-02-13 15:26:27 51°15.804 2°53.777 152.2 3.9 137 13.4
2008-02-13 15:27:27 51°15.744 2°53.848 158.2 4.9 145 13.2
2008-02-13 15:28:27 51°15.673 2°53.921 160.7 5.1 146 13
2008-02-13 15:29:27 51°15.602 2°53.997 160.7 5.2 146 13
2008-02-13 15:30:27 51°15.531 2°54.072 165.4 5 149 12.6
2008-02-13 15:31:27 51°15.442 2°54.136 168.8 6.8 158 12.3
2008-02-13 15:32:27 51°15.346 2°54.203 168.2 5.5 156 12
2008-02-13 15:33:27 51°15.27 2°54.258 168.8 4.8 155 11.8
2008-02-13 15:34:27 51°15.171 2°54.321 169.4 7.2 158 11.4
2008-02-13 15:35:27 51°15.056 2°54.394 169 7.5 159 11.1
2008-02-13 15:36:27 51°14.943 2°54.482 154 7.8 142 11.6
2008-02-13 15:37:27 51°14.837 2°54.6 161.5 7.6 152 12.3
2008-02-13 15:38:27 51°14.723 2°54.687 164.4 7.7 153 12.3
2008-02-13 15:39:27 51°14.615 2°54.8 155.6 7.9 146 12.2
2008-02-13 15:40:27 51°14.506 2°54.917 155.6 8 145 12.4
2008-02-13 15:41:27 51°14.399 2°55.044 143.5 8.1 134 13
2008-02-13 15:42:27 51°14.305 2°55.183 135.2 7 137 13.6
2008-02-13 15:43:27 51°14.23 2°55.307 130.2 6.4 133 13.9
2008-02-13 15:44:27 51°14.146 2°55.401 150.9 6.2 152 14.1
2008-02-13 15:45:27 51°14.052 2°55.472 151.6 6.3 152 14.1
2008-02-13 15:46:27 51°13.961 2°55.547 153.4 6 154 14
2008-02-13 15:47:27 51°13.872 2°55.608 154.7 5.7 158 13.5
2008-02-13 15:48:27 51°13.789 2°55.671 150.1 5.5 150 13.5
2008-02-13 15:49:27 51°13.724 2°55.766 129.3 5.1 131 14.7
2008-02-13 15:50:28 51°13.684 2°55.871 110.4 3.9 110 11.2
2008-02-13 15:51:27 51°13.67 2°55.938 110.5 1.8 111 9.4
2008-02-13 15:52:27 51°13.666 2°55.95 121.5 0.1 141 9.2
2008-02-13 15:53:27 51°13.667 2°55.952 123.8 0.1 6 9.1